sensor_id;sensor_type;location;lat;lon;timestamp;temperature;humidity
18281;DHT22;9266;51.132;17.062;2022-08-23T00:00:45;17.30;99.90
18281;DHT22;9266;51.132;17.062;2022-08-23T00:03:15;17.30;99.90
18281;DHT22;9266;51.132;17.062;2022-08-23T00:05:49;17.40;99.90
18281;DHT22;9266;51.132;17.062;2022-08-23T00:08:22;17.30;99.90
18281;DHT22;9266;51.132;17.062;2022-08-23T00:10:49;17.30;99.90
18281;DHT22;9266;51.132;17.062;2022-08-23T00:13:23;17.30;99.90
18281;DHT22;9266;51.132;17.062;2022-08-23T00:15:50;17.30;99.90
18281;DHT22;9266;51.132;17.062;2022-08-23T00:18:18;17.30;99.90
18281;DHT22;9266;51.132;17.062;2022-08-23T00:20:49;17.30;99.90
18281;DHT22;9266;51.132;17.062;2022-08-23T00:23:20;17.30;99.90
18281;DHT22;9266;51.132;17.062;2022-08-23T00:25:47;17.30;99.90
18281;DHT22;9266;51.132;17.062;2022-08-23T00:28:14;17.30;99.90
18281;DHT22;9266;51.132;17.062;2022-08-23T00:30:43;17.30;99.90
18281;DHT22;9266;51.132;17.062;2022-08-23T00:33:09;17.30;99.90
18281;DHT22;9266;51.132;17.062;2022-08-23T00:35:37;17.30;99.90
18281;DHT22;9266;51.132;17.062;2022-08-23T00:38:04;17.30;99.90
18281;DHT22;9266;51.132;17.062;2022-08-23T00:40:31;17.30;99.90
18281;DHT22;9266;51.132;17.062;2022-08-23T00:43:03;17.30;99.90
18281;DHT22;9266;51.132;17.062;2022-08-23T00:45:57;17.30;99.90
18281;DHT22;9266;51.132;17.062;2022-08-23T00:48:52;17.30;99.90
18281;DHT22;9266;51.132;17.062;2022-08-23T00:51:22;17.30;99.90
18281;DHT22;9266;51.132;17.062;2022-08-23T00:53:53;17.30;99.90
18281;DHT22;9266;51.132;17.062;2022-08-23T00:56:23;17.30;99.90
18281;DHT22;9266;51.132;17.062;2022-08-23T00:58:51;17.30;99.90
18281;DHT22;9266;51.132;17.062;2022-08-23T01:01:19;17.20;99.90
18281;DHT22;9266;51.132;17.062;2022-08-23T01:03:54;15.10;99.90
18281;DHT22;9266;51.132;17.062;2022-08-23T01:06:28;17.20;99.90
18281;DHT22;9266;51.132;17.062;2022-08-23T01:09:03;17.30;99.90
18281;DHT22;9266;51.132;17.062;2022-08-23T01:11:36;17.30;99.90
18281;DHT22;9266;51.132;17.062;2022-08-23T01:14:07;17.20;99.90
18281;DHT22;9266;51.132;17.062;2022-08-23T01:16:42;17.20;99.90
18281;DHT22;9266;51.132;17.062;2022-08-23T01:19:17;17.20;99.90
18281;DHT22;9266;51.132;17.062;2022-08-23T01:21:53;17.20;99.90
18281;DHT22;9266;51.132;17.062;2022-08-23T01:24:24;17.20;99.90
18281;DHT22;9266;51.132;17.062;2022-08-23T01:26:51;17.20;99.90
18281;DHT22;9266;51.132;17.062;2022-08-23T01:29:18;17.20;99.90
18281;DHT22;9266;51.132;17.062;2022-08-23T01:31:46;17.10;99.90
18281;DHT22;9266;51.132;17.062;2022-08-23T01:34:15;17.10;99.90
18281;DHT22;9266;51.132;17.062;2022-08-23T01:36:43;17.10;99.90
18281;DHT22;9266;51.132;17.062;2022-08-23T01:39:11;17.10;99.90
18281;DHT22;9266;51.132;17.062;2022-08-23T01:41:40;17.10;99.90
18281;DHT22;9266;51.132;17.062;2022-08-23T01:44:07;17.10;99.90
18281;DHT22;9266;51.132;17.062;2022-08-23T01:46:34;17.20;99.90
18281;DHT22;9266;51.132;17.062;2022-08-23T01:49:03;17.20;99.90
18281;DHT22;9266;51.132;17.062;2022-08-23T01:51:31;17.20;99.90
18281;DHT22;9266;51.132;17.062;2022-08-23T01:53:58;17.20;99.90
18281;DHT22;9266;51.132;17.062;2022-08-23T01:56:25;17.10;99.90
18281;DHT22;9266;51.132;17.062;2022-08-23T01:58:53;17.10;99.90
18281;DHT22;9266;51.132;17.062;2022-08-23T02:01:20;17.10;99.90
18281;DHT22;9266;51.132;17.062;2022-08-23T02:03:47;17.10;99.90
18281;DHT22;9266;51.132;17.062;2022-08-23T02:06:14;17.10;99.90
18281;DHT22;9266;51.132;17.062;2022-08-23T02:08:42;17.10;99.90
18281;DHT22;9266;51.132;17.062;2022-08-23T02:11:28;17.10;99.90
18281;DHT22;9266;51.132;17.062;2022-08-23T02:13:59;17.00;99.90
18281;DHT22;9266;51.132;17.062;2022-08-23T02:16:30;17.00;99.90
18281;DHT22;9266;51.132;17.062;2022-08-23T02:18:58;17.00;99.90
18281;DHT22;9266;51.132;17.062;2022-08-23T02:21:27;17.00;99.90
18281;DHT22;9266;51.132;17.062;2022-08-23T02:23:56;17.00;99.90
18281;DHT22;9266;51.132;17.062;2022-08-23T02:26:23;17.00;99.90
18281;DHT22;9266;51.132;17.062;2022-08-23T02:28:51;16.90;99.90
18281;DHT22;9266;51.132;17.062;2022-08-23T02:31:20;16.90;99.90
18281;DHT22;9266;51.132;17.062;2022-08-23T02:33:48;16.90;99.90
18281;DHT22;9266;51.132;17.062;2022-08-23T02:36:22;16.80;99.90
18281;DHT22;9266;51.132;17.062;2022-08-23T02:38:49;16.80;99.90
18281;DHT22;9266;51.132;17.062;2022-08-23T02:41:16;16.80;99.90
18281;DHT22;9266;51.132;17.062;2022-08-23T02:43:43;16.80;99.90
18281;DHT22;9266;51.132;17.062;2022-08-23T02:46:10;16.70;99.90
18281;DHT22;9266;51.132;17.062;2022-08-23T02:48:39;16.80;99.90
18281;DHT22;9266;51.132;17.062;2022-08-23T02:51:10;16.80;99.90
18281;DHT22;9266;51.132;17.062;2022-08-23T02:53:39;16.70;99.90
18281;DHT22;9266;51.132;17.062;2022-08-23T02:56:07;16.70;99.90
18281;DHT22;9266;51.132;17.062;2022-08-23T02:58:35;16.70;99.90
18281;DHT22;9266;51.132;17.062;2022-08-23T03:01:02;16.70;99.90
18281;DHT22;9266;51.132;17.062;2022-08-23T03:03:30;16.70;99.90
18281;DHT22;9266;51.132;17.062;2022-08-23T03:05:59;16.70;99.90
18281;DHT22;9266;51.132;17.062;2022-08-23T03:08:26;16.70;99.90
18281;DHT22;9266;51.132;17.062;2022-08-23T03:10:54;16.70;99.90
18281;DHT22;9266;51.132;17.062;2022-08-23T03:13:22;16.70;99.90
18281;DHT22;9266;51.132;17.062;2022-08-23T03:15:50;16.70;99.90
18281;DHT22;9266;51.132;17.062;2022-08-23T03:18:17;16.70;99.90
18281;DHT22;9266;51.132;17.062;2022-08-23T03:20:44;16.70;99.90
18281;DHT22;9266;51.132;17.062;2022-08-23T03:23:14;16.70;99.90
18281;DHT22;9266;51.132;17.062;2022-08-23T03:25:42;16.60;99.90
18281;DHT22;9266;51.132;17.062;2022-08-23T03:28:13;16.50;99.90
18281;DHT22;9266;51.132;17.062;2022-08-23T03:31:23;16.70;99.90
18281;DHT22;9266;51.132;17.062;2022-08-23T03:34:25;16.70;99.90
18281;DHT22;9266;51.132;17.062;2022-08-23T03:36:52;16.60;99.90
18281;DHT22;9266;51.132;17.062;2022-08-23T03:39:22;16.60;99.90
18281;DHT22;9266;51.132;17.062;2022-08-23T03:41:50;16.60;99.90
18281;DHT22;9266;51.132;17.062;2022-08-23T03:44:19;16.60;99.90
18281;DHT22;9266;51.132;17.062;2022-08-23T03:46:47;16.50;99.90
18281;DHT22;9266;51.132;17.062;2022-08-23T03:49:15;16.60;99.90
18281;DHT22;9266;51.132;17.062;2022-08-23T03:51:42;16.50;99.90
18281;DHT22;9266;51.132;17.062;2022-08-23T03:54:10;17.60;99.90
18281;DHT22;9266;51.132;17.062;2022-08-23T03:56:50;16.50;99.90
18281;DHT22;9266;51.132;17.062;2022-08-23T03:59:17;16.50;99.90
18281;DHT22;9266;51.132;17.062;2022-08-23T04:01:44;16.50;99.90
18281;DHT22;9266;51.132;17.062;2022-08-23T04:04:11;16.60;99.90
18281;DHT22;9266;51.132;17.062;2022-08-23T04:06:38;16.50;99.90
18281;DHT22;9266;51.132;17.062;2022-08-23T04:09:06;16.50;99.90
18281;DHT22;9266;51.132;17.062;2022-08-23T04:11:33;16.50;99.90
18281;DHT22;9266;51.132;17.062;2022-08-23T04:14:01;16.50;99.90
18281;DHT22;9266;51.132;17.062;2022-08-23T04:16:28;16.50;99.90
18281;DHT22;9266;51.132;17.062;2022-08-23T04:19:02;16.50;99.90
18281;DHT22;9266;51.132;17.062;2022-08-23T04:21:30;16.60;99.90
18281;DHT22;9266;51.132;17.062;2022-08-23T04:23:59;16.60;99.90
18281;DHT22;9266;51.132;17.062;2022-08-23T04:26:28;16.60;99.90
18281;DHT22;9266;51.132;17.062;2022-08-23T04:28:55;16.50;99.90
18281;DHT22;9266;51.132;17.062;2022-08-23T04:31:24;16.60;99.90
18281;DHT22;9266;51.132;17.062;2022-08-23T04:33:52;16.60;99.90
18281;DHT22;9266;51.132;17.062;2022-08-23T04:36:21;16.50;99.90
18281;DHT22;9266;51.132;17.062;2022-08-23T04:38:50;16.50;99.90
18281;DHT22;9266;51.132;17.062;2022-08-23T04:41:18;16.60;99.90
18281;DHT22;9266;51.132;17.062;2022-08-23T04:44:02;16.50;99.90
18281;DHT22;9266;51.132;17.062;2022-08-23T04:46:31;16.50;99.90
18281;DHT22;9266;51.132;17.062;2022-08-23T04:48:58;16.50;99.90
18281;DHT22;9266;51.132;17.062;2022-08-23T04:51:25;16.50;99.90
18281;DHT22;9266;51.132;17.062;2022-08-23T04:53:52;16.50;99.90
18281;DHT22;9266;51.132;17.062;2022-08-23T04:56:20;16.50;99.90
18281;DHT22;9266;51.132;17.062;2022-08-23T04:58:48;16.60;99.90
18281;DHT22;9266;51.132;17.062;2022-08-23T05:01:15;16.60;99.90
18281;DHT22;9266;51.132;17.062;2022-08-23T05:03:43;16.60;99.90
18281;DHT22;9266;51.132;17.062;2022-08-23T05:06:10;16.60;99.90
18281;DHT22;9266;51.132;17.062;2022-08-23T05:08:38;16.60;99.90
18281;DHT22;9266;51.132;17.062;2022-08-23T05:11:06;16.70;99.90
18281;DHT22;9266;51.132;17.062;2022-08-23T05:13:35;16.70;99.90
18281;DHT22;9266;51.132;17.062;2022-08-23T05:16:03;16.70;99.90
18281;DHT22;9266;51.132;17.062;2022-08-23T05:18:30;16.70;99.90
18281;DHT22;9266;51.132;17.062;2022-08-23T05:20:59;16.70;99.90
18281;DHT22;9266;51.132;17.062;2022-08-23T05:23:26;16.70;99.90
18281;DHT22;9266;51.132;17.062;2022-08-23T05:25:54;16.80;99.90
18281;DHT22;9266;51.132;17.062;2022-08-23T05:28:23;16.80;99.90
18281;DHT22;9266;51.132;17.062;2022-08-23T05:30:57;16.90;99.90
18281;DHT22;9266;51.132;17.062;2022-08-23T05:33:24;16.90;99.90
18281;DHT22;9266;51.132;17.062;2022-08-23T05:35:54;16.90;99.90
18281;DHT22;9266;51.132;17.062;2022-08-23T05:38:23;16.90;99.90
18281;DHT22;9266;51.132;17.062;2022-08-23T05:40:52;16.80;99.90
18281;DHT22;9266;51.132;17.062;2022-08-23T05:43:19;16.80;99.90
18281;DHT22;9266;51.132;17.062;2022-08-23T05:45:46;16.90;99.90
18281;DHT22;9266;51.132;17.062;2022-08-23T05:48:14;16.80;99.90
18281;DHT22;9266;51.132;17.062;2022-08-23T05:50:41;16.90;99.90
18281;DHT22;9266;51.132;17.062;2022-08-23T05:53:09;16.90;99.90
18281;DHT22;9266;51.132;17.062;2022-08-23T05:55:37;17.00;99.90
18281;DHT22;9266;51.132;17.062;2022-08-23T05:58:04;17.10;99.90
18281;DHT22;9266;51.132;17.062;2022-08-23T06:00:31;17.10;99.90
18281;DHT22;9266;51.132;17.062;2022-08-23T06:02:58;17.10;99.90
18281;DHT22;9266;51.132;17.062;2022-08-23T06:05:26;17.10;99.90
18281;DHT22;9266;51.132;17.062;2022-08-23T06:07:53;17.10;99.90
18281;DHT22;9266;51.132;17.062;2022-08-23T06:10:20;17.10;99.90
18281;DHT22;9266;51.132;17.062;2022-08-23T06:12:48;17.10;99.90
18281;DHT22;9266;51.132;17.062;2022-08-23T06:15:16;18.20;99.90
18281;DHT22;9266;51.132;17.062;2022-08-23T06:17:43;17.10;99.90
18281;DHT22;9266;51.132;17.062;2022-08-23T06:20:10;17.20;99.90
18281;DHT22;9266;51.132;17.062;2022-08-23T06:22:39;17.20;99.90
18281;DHT22;9266;51.132;17.062;2022-08-23T06:25:07;17.20;99.90
18281;DHT22;9266;51.132;17.062;2022-08-23T06:27:34;17.30;99.90
18281;DHT22;9266;51.132;17.062;2022-08-23T06:30:03;17.30;99.90
18281;DHT22;9266;51.132;17.062;2022-08-23T06:32:30;17.30;99.90
18281;DHT22;9266;51.132;17.062;2022-08-23T06:34:57;17.30;99.90
18281;DHT22;9266;51.132;17.062;2022-08-23T06:37:24;17.30;99.90
18281;DHT22;9266;51.132;17.062;2022-08-23T06:39:51;17.30;99.90
18281;DHT22;9266;51.132;17.062;2022-08-23T06:42:21;17.30;99.90
18281;DHT22;9266;51.132;17.062;2022-08-23T06:44:49;17.30;99.90
18281;DHT22;9266;51.132;17.062;2022-08-23T06:47:17;17.30;99.90
18281;DHT22;9266;51.132;17.062;2022-08-23T06:49:44;17.30;99.90
18281;DHT22;9266;51.132;17.062;2022-08-23T06:52:11;17.30;99.90
18281;DHT22;9266;51.132;17.062;2022-08-23T06:54:39;17.30;99.90
18281;DHT22;9266;51.132;17.062;2022-08-23T06:57:05;17.20;99.90
18281;DHT22;9266;51.132;17.062;2022-08-23T06:59:32;17.30;99.90
18281;DHT22;9266;51.132;17.062;2022-08-23T07:02:01;17.40;99.90
18281;DHT22;9266;51.132;17.062;2022-08-23T07:04:31;17.50;99.90
18281;DHT22;9266;51.132;17.062;2022-08-23T07:06:59;17.60;99.90
18281;DHT22;9266;51.132;17.062;2022-08-23T07:09:27;16.30;99.90
18281;DHT22;9266;51.132;17.062;2022-08-23T07:11:55;17.80;99.90
18281;DHT22;9266;51.132;17.062;2022-08-23T07:14:22;17.80;99.90
18281;DHT22;9266;51.132;17.062;2022-08-23T07:16:51;17.70;99.90
18281;DHT22;9266;51.132;17.062;2022-08-23T07:19:25;17.70;99.90
18281;DHT22;9266;51.132;17.062;2022-08-23T07:21:54;17.80;99.90
18281;DHT22;9266;51.132;17.062;2022-08-23T07:24:21;17.70;99.90
18281;DHT22;9266;51.132;17.062;2022-08-23T07:26:50;17.60;99.90
18281;DHT22;9266;51.132;17.062;2022-08-23T07:29:19;17.80;99.90
18281;DHT22;9266;51.132;17.062;2022-08-23T07:31:48;17.90;99.90
18281;DHT22;9266;51.132;17.062;2022-08-23T07:34:17;17.90;99.90
18281;DHT22;9266;51.132;17.062;2022-08-23T07:36:46;17.90;99.90
18281;DHT22;9266;51.132;17.062;2022-08-23T07:39:15;18.00;99.90
18281;DHT22;9266;51.132;17.062;2022-08-23T07:41:43;18.00;99.90
18281;DHT22;9266;51.132;17.062;2022-08-23T07:44:11;18.10;99.90
18281;DHT22;9266;51.132;17.062;2022-08-23T07:46:41;18.10;99.90
18281;DHT22;9266;51.132;17.062;2022-08-23T07:49:10;18.10;99.90
18281;DHT22;9266;51.132;17.062;2022-08-23T07:51:38;18.20;99.90
18281;DHT22;9266;51.132;17.062;2022-08-23T07:54:08;18.20;99.90
18281;DHT22;9266;51.132;17.062;2022-08-23T07:56:37;18.10;99.90
18281;DHT22;9266;51.132;17.062;2022-08-23T07:59:06;18.20;99.90
18281;DHT22;9266;51.132;17.062;2022-08-23T08:01:36;18.20;99.90
18281;DHT22;9266;51.132;17.062;2022-08-23T08:04:06;18.10;99.90
18281;DHT22;9266;51.132;17.062;2022-08-23T08:06:38;18.40;99.90
18281;DHT22;9266;51.132;17.062;2022-08-23T08:09:06;18.40;99.90
18281;DHT22;9266;51.132;17.062;2022-08-23T08:11:34;18.50;99.90
18281;DHT22;9266;51.132;17.062;2022-08-23T08:14:06;18.60;99.90
18281;DHT22;9266;51.132;17.062;2022-08-23T08:16:39;18.50;99.90
18281;DHT22;9266;51.132;17.062;2022-08-23T08:19:10;18.40;99.90
18281;DHT22;9266;51.132;17.062;2022-08-23T08:21:38;18.30;99.90
18281;DHT22;9266;51.132;17.062;2022-08-23T08:24:06;18.50;99.90
18281;DHT22;9266;51.132;17.062;2022-08-23T08:26:35;18.60;99.90
18281;DHT22;9266;51.132;17.062;2022-08-23T08:29:04;18.60;99.90
18281;DHT22;9266;51.132;17.062;2022-08-23T08:31:31;18.80;99.90
18281;DHT22;9266;51.132;17.062;2022-08-23T08:33:59;19.10;99.90
18281;DHT22;9266;51.132;17.062;2022-08-23T08:36:29;19.30;99.90
18281;DHT22;9266;51.132;17.062;2022-08-23T08:38:56;19.80;99.90
18281;DHT22;9266;51.132;17.062;2022-08-23T08:41:34;20.50;99.90
18281;DHT22;9266;51.132;17.062;2022-08-23T08:44:18;21.10;99.90
18281;DHT22;9266;51.132;17.062;2022-08-23T08:46:50;21.20;99.90
18281;DHT22;9266;51.132;17.062;2022-08-23T08:49:37;21.20;99.90
18281;DHT22;9266;51.132;17.062;2022-08-23T08:52:12;20.70;99.90
18281;DHT22;9266;51.132;17.062;2022-08-23T08:54:42;20.50;99.90
18281;DHT22;9266;51.132;17.062;2022-08-23T08:57:13;20.40;99.90
18281;DHT22;9266;51.132;17.062;2022-08-23T08:59:47;20.00;99.90
18281;DHT22;9266;51.132;17.062;2022-08-23T09:02:19;19.90;99.90
18281;DHT22;9266;51.132;17.062;2022-08-23T09:04:47;19.80;99.90
18281;DHT22;9266;51.132;17.062;2022-08-23T09:07:22;19.90;99.90
18281;DHT22;9266;51.132;17.062;2022-08-23T09:10:13;20.10;99.90
18281;DHT22;9266;51.132;17.062;2022-08-23T09:12:50;20.20;99.90
18281;DHT22;9266;51.132;17.062;2022-08-23T09:15:32;20.10;99.90
18281;DHT22;9266;51.132;17.062;2022-08-23T09:18:06;19.40;99.90
18281;DHT22;9266;51.132;17.062;2022-08-23T09:20:34;20.00;99.90
18281;DHT22;9266;51.132;17.062;2022-08-23T09:23:08;20.10;99.90
18281;DHT22;9266;51.132;17.062;2022-08-23T09:25:37;20.20;99.90
18281;DHT22;9266;51.132;17.062;2022-08-23T09:28:05;20.40;99.90
18281;DHT22;9266;51.132;17.062;2022-08-23T09:30:49;20.60;99.90
18281;DHT22;9266;51.132;17.062;2022-08-23T09:33:19;20.90;99.90
18281;DHT22;9266;51.132;17.062;2022-08-23T09:36:04;20.60;99.90
18281;DHT22;9266;51.132;17.062;2022-08-23T09:38:32;20.60;99.90
18281;DHT22;9266;51.132;17.062;2022-08-23T09:40:59;20.60;99.90
18281;DHT22;9266;51.132;17.062;2022-08-23T09:43:28;20.30;99.90
18281;DHT22;9266;51.132;17.062;2022-08-23T09:46:09;20.30;99.90
18281;DHT22;9266;51.132;17.062;2022-08-23T09:48:38;20.20;99.90
18281;DHT22;9266;51.132;17.062;2022-08-23T09:51:16;20.20;99.90
18281;DHT22;9266;51.132;17.062;2022-08-23T09:53:46;20.20;99.90
18281;DHT22;9266;51.132;17.062;2022-08-23T09:56:17;20.00;99.90
18281;DHT22;9266;51.132;17.062;2022-08-23T09:58:49;20.00;99.90
18281;DHT22;9266;51.132;17.062;2022-08-23T10:01:23;19.90;99.90
18281;DHT22;9266;51.132;17.062;2022-08-23T10:04:09;20.00;99.90
18281;DHT22;9266;51.132;17.062;2022-08-23T10:06:37;20.10;99.90
18281;DHT22;9266;51.132;17.062;2022-08-23T10:09:07;20.20;99.90
18281;DHT22;9266;51.132;17.062;2022-08-23T10:11:38;20.30;99.90
18281;DHT22;9266;51.132;17.062;2022-08-23T10:14:07;20.50;99.90
18281;DHT22;9266;51.132;17.062;2022-08-23T10:16:40;20.50;99.90
18281;DHT22;9266;51.132;17.062;2022-08-23T10:19:21;20.60;99.90
18281;DHT22;9266;51.132;17.062;2022-08-23T10:21:59;20.60;99.90
18281;DHT22;9266;51.132;17.062;2022-08-23T10:24:38;20.70;99.90
18281;DHT22;9266;51.132;17.062;2022-08-23T10:27:17;20.60;99.90
18281;DHT22;9266;51.132;17.062;2022-08-23T10:30:06;20.40;99.90
18281;DHT22;9266;51.132;17.062;2022-08-23T10:32:59;20.50;99.90
18281;DHT22;9266;51.132;17.062;2022-08-23T10:35:34;20.40;99.90
18281;DHT22;9266;51.132;17.062;2022-08-23T10:38:33;20.30;99.90
18281;DHT22;9266;51.132;17.062;2022-08-23T10:41:09;20.40;99.90
18281;DHT22;9266;51.132;17.062;2022-08-23T10:43:48;20.80;99.90
18281;DHT22;9266;51.132;17.062;2022-08-23T10:46:19;21.10;99.90
18281;DHT22;9266;51.132;17.062;2022-08-23T10:48:52;21.00;99.90
18281;DHT22;9266;51.132;17.062;2022-08-23T10:51:25;21.10;99.90
18281;DHT22;9266;51.132;17.062;2022-08-23T10:53:57;20.60;99.90
18281;DHT22;9266;51.132;17.062;2022-08-23T10:56:27;20.50;99.90
18281;DHT22;9266;51.132;17.062;2022-08-23T10:58:56;20.30;99.90
18281;DHT22;9266;51.132;17.062;2022-08-23T11:01:28;20.30;99.90
18281;DHT22;9266;51.132;17.062;2022-08-23T11:04:04;20.20;99.90
18281;DHT22;9266;51.132;17.062;2022-08-23T11:06:50;20.10;99.90
18281;DHT22;9266;51.132;17.062;2022-08-23T11:09:49;20.00;99.90
18281;DHT22;9266;51.132;17.062;2022-08-23T11:12:27;20.00;99.90
18281;DHT22;9266;51.132;17.062;2022-08-23T11:17:59;20.40;99.90
18281;DHT22;9266;51.132;17.062;2022-08-23T11:21:02;20.70;99.90
18281;DHT22;9266;51.132;17.062;2022-08-23T11:23:51;20.60;99.90
18281;DHT22;9266;51.132;17.062;2022-08-23T11:29:30;20.60;99.90
18281;DHT22;9266;51.132;17.062;2022-08-23T11:32:04;20.70;99.90
18281;DHT22;9266;51.132;17.062;2022-08-23T11:34:44;20.90;99.90
18281;DHT22;9266;51.132;17.062;2022-08-23T11:37:27;20.90;99.90
18281;DHT22;9266;51.132;17.062;2022-08-23T11:40:07;21.20;99.90
18281;DHT22;9266;51.132;17.062;2022-08-23T11:42:47;21.30;99.90
18281;DHT22;9266;51.132;17.062;2022-08-23T11:45:28;21.30;99.90
18281;DHT22;9266;51.132;17.062;2022-08-23T11:48:16;21.40;99.90
18281;DHT22;9266;51.132;17.062;2022-08-23T11:51:00;21.50;99.90
18281;DHT22;9266;51.132;17.062;2022-08-23T11:53:44;21.90;99.90
18281;DHT22;9266;51.132;17.062;2022-08-23T11:56:49;22.10;99.90
18281;DHT22;9266;51.132;17.062;2022-08-23T11:59:37;22.30;99.90
18281;DHT22;9266;51.132;17.062;2022-08-23T12:02:55;22.20;99.90
18281;DHT22;9266;51.132;17.062;2022-08-23T12:08:50;21.90;99.90
18281;DHT22;9266;51.132;17.062;2022-08-23T12:11:20;21.70;1.00
18281;DHT22;9266;51.132;17.062;2022-08-23T12:13:58;21.80;1.00
18281;DHT22;9266;51.132;17.062;2022-08-23T12:16:37;21.60;1.00
18281;DHT22;9266;51.132;17.062;2022-08-23T12:19:23;21.50;1.00
18281;DHT22;9266;51.132;17.062;2022-08-23T12:21:55;21.50;1.00
18281;DHT22;9266;51.132;17.062;2022-08-23T12:24:28;21.60;1.00
18281;DHT22;9266;51.132;17.062;2022-08-23T12:27:04;21.70;1.00
18281;DHT22;9266;51.132;17.062;2022-08-23T12:29:43;21.80;1.00
18281;DHT22;9266;51.132;17.062;2022-08-23T12:32:20;21.80;1.00
18281;DHT22;9266;51.132;17.062;2022-08-23T12:35:02;21.80;1.00
18281;DHT22;9266;51.132;17.062;2022-08-23T12:37:34;21.50;1.00
18281;DHT22;9266;51.132;17.062;2022-08-23T12:40:07;21.20;1.00
18281;DHT22;9266;51.132;17.062;2022-08-23T12:42:37;21.30;1.00
18281;DHT22;9266;51.132;17.062;2022-08-23T12:45:10;21.40;1.00
18281;DHT22;9266;51.132;17.062;2022-08-23T12:47:39;21.40;1.00
18281;DHT22;9266;51.132;17.062;2022-08-23T12:52:37;21.30;1.00
18281;DHT22;9266;51.132;17.062;2022-08-23T12:55:14;21.30;1.00
18281;DHT22;9266;51.132;17.062;2022-08-23T12:57:43;23.20;1.00
18281;DHT22;9266;51.132;17.062;2022-08-23T13:00:19;21.20;1.00
18281;DHT22;9266;51.132;17.062;2022-08-23T13:02:51;21.10;1.00
18281;DHT22;9266;51.132;17.062;2022-08-23T13:05:30;21.20;1.00
18281;DHT22;9266;51.132;17.062;2022-08-23T13:08:04;21.20;1.00
18281;DHT22;9266;51.132;17.062;2022-08-23T13:10:34;21.20;1.00
18281;DHT22;9266;51.132;17.062;2022-08-23T13:13:01;21.30;1.00
18281;DHT22;9266;51.132;17.062;2022-08-23T13:15:47;21.40;1.00
18281;DHT22;9266;51.132;17.062;2022-08-23T13:18:27;21.30;1.00
18281;DHT22;9266;51.132;17.062;2022-08-23T13:24:11;21.20;1.00
18281;DHT22;9266;51.132;17.062;2022-08-23T13:26:49;21.10;1.00
18281;DHT22;9266;51.132;17.062;2022-08-23T13:29:22;21.10;1.00
18281;DHT22;9266;51.132;17.062;2022-08-23T13:31:56;21.10;1.00
18281;DHT22;9266;51.132;17.062;2022-08-23T13:34:37;21.00;1.00
18281;DHT22;9266;51.132;17.062;2022-08-23T13:37:16;20.80;1.00
18281;DHT22;9266;51.132;17.062;2022-08-23T13:39:46;20.80;21.10
18281;DHT22;9266;51.132;17.062;2022-08-23T13:42:34;20.90;13.10
18281;DHT22;9266;51.132;17.062;2022-08-23T13:45:12;20.80;1.00
18281;DHT22;9266;51.132;17.062;2022-08-23T13:47:45;20.60;55.80
18281;DHT22;9266;51.132;17.062;2022-08-23T13:50:15;20.70;81.90
18281;DHT22;9266;51.132;17.062;2022-08-23T13:52:42;20.60;61.10
18281;DHT22;9266;51.132;17.062;2022-08-23T13:55:10;20.60;99.90
18281;DHT22;9266;51.132;17.062;2022-08-23T13:57:38;20.60;80.60
18281;DHT22;9266;51.132;17.062;2022-08-23T14:00:07;20.60;99.10
18281;DHT22;9266;51.132;17.062;2022-08-23T14:02:36;20.60;41.70
18281;DHT22;9266;51.132;17.062;2022-08-23T14:05:04;20.50;99.90
18281;DHT22;9266;51.132;17.062;2022-08-23T14:07:31;20.40;99.90
18281;DHT22;9266;51.132;17.062;2022-08-23T14:09:58;20.50;99.90
18281;DHT22;9266;51.132;17.062;2022-08-23T14:12:28;20.50;99.90
18281;DHT22;9266;51.132;17.062;2022-08-23T14:14:58;20.50;99.90
18281;DHT22;9266;51.132;17.062;2022-08-23T14:17:25;20.50;99.90
18281;DHT22;9266;51.132;17.062;2022-08-23T14:19:53;20.50;99.90
18281;DHT22;9266;51.132;17.062;2022-08-23T14:22:20;20.50;99.90
18281;DHT22;9266;51.132;17.062;2022-08-23T14:24:48;20.50;99.90
18281;DHT22;9266;51.132;17.062;2022-08-23T14:27:15;20.40;99.90
18281;DHT22;9266;51.132;17.062;2022-08-23T14:29:42;20.30;99.90
18281;DHT22;9266;51.132;17.062;2022-08-23T14:32:10;20.30;99.90
18281;DHT22;9266;51.132;17.062;2022-08-23T14:34:37;20.30;99.90
18281;DHT22;9266;51.132;17.062;2022-08-23T14:37:04;20.40;99.90
18281;DHT22;9266;51.132;17.062;2022-08-23T14:39:31;20.30;99.90
18281;DHT22;9266;51.132;17.062;2022-08-23T14:41:58;20.40;99.90
18281;DHT22;9266;51.132;17.062;2022-08-23T14:44:25;20.30;99.90
18281;DHT22;9266;51.132;17.062;2022-08-23T14:46:52;20.20;99.90
18281;DHT22;9266;51.132;17.062;2022-08-23T14:49:21;20.10;99.90
18281;DHT22;9266;51.132;17.062;2022-08-23T14:51:49;20.20;99.90
18281;DHT22;9266;51.132;17.062;2022-08-23T14:54:19;20.30;99.90
18281;DHT22;9266;51.132;17.062;2022-08-23T14:56:47;20.40;99.90
18281;DHT22;9266;51.132;17.062;2022-08-23T14:59:14;20.50;99.90
18281;DHT22;9266;51.132;17.062;2022-08-23T15:01:42;20.50;99.90
18281;DHT22;9266;51.132;17.062;2022-08-23T15:04:10;20.50;99.90
18281;DHT22;9266;51.132;17.062;2022-08-23T15:06:42;20.60;99.90
18281;DHT22;9266;51.132;17.062;2022-08-23T15:09:09;20.60;99.90
18281;DHT22;9266;51.132;17.062;2022-08-23T15:11:36;20.60;99.90
18281;DHT22;9266;51.132;17.062;2022-08-23T15:14:03;20.70;99.90
18281;DHT22;9266;51.132;17.062;2022-08-23T15:16:30;20.70;99.90
18281;DHT22;9266;51.132;17.062;2022-08-23T15:18:58;20.80;39.80
18281;DHT22;9266;51.132;17.062;2022-08-23T15:21:26;20.70;45.90
18281;DHT22;9266;51.132;17.062;2022-08-23T15:23:57;20.60;26.20
18281;DHT22;9266;51.132;17.062;2022-08-23T15:26:37;20.70;99.90
18281;DHT22;9266;51.132;17.062;2022-08-23T15:29:05;20.70;99.90
18281;DHT22;9266;51.132;17.062;2022-08-23T15:31:32;20.70;99.90
18281;DHT22;9266;51.132;17.062;2022-08-23T15:33:59;21.90;99.90
18281;DHT22;9266;51.132;17.062;2022-08-23T15:36:26;20.70;99.90
18281;DHT22;9266;51.132;17.062;2022-08-23T15:38:53;20.80;99.90
18281;DHT22;9266;51.132;17.062;2022-08-23T15:41:22;20.70;99.90
18281;DHT22;9266;51.132;17.062;2022-08-23T15:43:49;20.70;99.90
18281;DHT22;9266;51.132;17.062;2022-08-23T15:46:19;20.60;99.90
18281;DHT22;9266;51.132;17.062;2022-08-23T15:48:49;20.60;99.90
18281;DHT22;9266;51.132;17.062;2022-08-23T15:51:18;20.60;99.90
18281;DHT22;9266;51.132;17.062;2022-08-23T15:53:45;20.60;99.90
18281;DHT22;9266;51.132;17.062;2022-08-23T15:56:16;20.60;99.90
18281;DHT22;9266;51.132;17.062;2022-08-23T15:58:46;20.60;99.90
18281;DHT22;9266;51.132;17.062;2022-08-23T16:01:14;20.60;99.90
18281;DHT22;9266;51.132;17.062;2022-08-23T16:03:42;20.50;99.90
18281;DHT22;9266;51.132;17.062;2022-08-23T16:06:11;20.40;99.90
18281;DHT22;9266;51.132;17.062;2022-08-23T16:08:40;20.30;99.90
18281;DHT22;9266;51.132;17.062;2022-08-23T16:11:07;20.20;99.90
18281;DHT22;9266;51.132;17.062;2022-08-23T16:13:38;20.20;99.90